createdAt,value
2023-02-19T00:01:54.133Z,15.98
2023-02-19T00:04:22.656Z,15.89
2023-02-19T00:06:50.347Z,15.79
2023-02-19T00:09:19.643Z,15.94
2023-02-19T00:11:47.870Z,15.51
2023-02-19T00:14:19.210Z,15.80
2023-02-19T00:16:47.382Z,15.98
2023-02-19T00:19:17.896Z,15.64
2023-02-19T00:21:45.063Z,15.55
2023-02-19T00:24:13.792Z,16.02
2023-02-19T00:26:41.430Z,15.85
2023-02-19T00:29:09.873Z,15.58
2023-02-19T00:31:37.418Z,15.30
2023-02-19T00:34:06.335Z,15.57
2023-02-19T00:36:37.541Z,15.66
2023-02-19T00:39:06.634Z,15.83
2023-02-19T00:41:34.009Z,15.80
2023-02-19T00:44:04.904Z,15.84
2023-02-19T00:46:39.530Z,15.76
2023-02-19T00:49:07.996Z,15.75
2023-02-19T00:51:37.874Z,15.96
2023-02-19T00:54:06.483Z,15.86
2023-02-19T00:56:33.972Z,15.78
2023-02-19T00:59:01.421Z,15.61
2023-02-19T01:01:28.404Z,15.77
2023-02-19T01:03:56.002Z,15.30
2023-02-19T01:06:23.673Z,15.75
2023-02-19T01:08:51.377Z,15.45
2023-02-19T01:11:20.290Z,15.66
2023-02-19T01:13:47.990Z,14.73
2023-02-19T01:16:22.178Z,15.15
2023-02-19T01:18:49.612Z,14.57
2023-02-19T01:21:24.403Z,15.22
2023-02-19T01:23:52.665Z,14.55
2023-02-19T01:26:23.139Z,15.03
2023-02-19T01:28:50.321Z,14.96
2023-02-19T01:31:24.310Z,14.79
2023-02-19T01:33:57.833Z,15.11
2023-02-19T01:36:26.101Z,15.17
2023-02-19T01:38:53.691Z,14.08
2023-02-19T01:41:24.622Z,14.93
2023-02-19T01:44:25.543Z,15.24
2023-02-19T01:47:02.696Z,15.09
2023-02-19T01:49:37.180Z,15.19
2023-02-19T01:52:16.756Z,14.91
2023-02-19T01:54:45.621Z,14.78
2023-02-19T01:57:20.667Z,14.71
2023-02-19T01:59:53.314Z,14.69
2023-02-19T02:02:21.344Z,14.24
2023-02-19T02:04:48.841Z,13.70
2023-02-19T02:07:34.947Z,14.56
2023-02-19T02:10:20.328Z,14.86
2023-02-19T02:12:53.349Z,15.04
2023-02-19T02:15:22.251Z,14.46
2023-02-19T02:18:06.158Z,14.59
2023-02-19T02:20:33.458Z,14.15
2023-02-19T02:23:35.488Z,13.95
2023-02-19T02:26:40.976Z,14.63
2023-02-19T02:29:47.114Z,14.98
2023-02-19T02:32:26.097Z,14.54
2023-02-19T02:35:08.078Z,14.55
2023-02-19T02:37:37.473Z,14.78
2023-02-19T02:40:06.514Z,14.13
2023-02-19T02:42:35.456Z,14.08
2023-02-19T02:45:37.328Z,14.10
2023-02-19T02:48:13.252Z,14.35
2023-02-19T02:51:18.113Z,14.35
2023-02-19T02:54:15.855Z,13.55
2023-02-19T02:56:46.036Z,14.14
2023-02-19T02:59:16.752Z,14.38
2023-02-19T03:02:10.958Z,13.84
2023-02-19T03:05:12.160Z,14.32
2023-02-19T03:07:41.787Z,14.14
2023-02-19T03:10:13.840Z,13.74
2023-02-19T03:13:00.333Z,13.55
2023-02-19T03:15:54.514Z,13.60
2023-02-19T03:18:42.401Z,13.64
2023-02-19T03:21:10.545Z,13.06
2023-02-19T03:23:58.655Z,13.20
2023-02-19T03:26:26.871Z,14.90
2023-02-19T03:29:13.462Z,14.08
2023-02-19T03:31:44.727Z,13.79
2023-02-19T03:34:26.341Z,13.81
2023-02-19T03:37:30.379Z,14.08
2023-02-19T03:39:59.429Z,13.58
2023-02-19T03:42:56.268Z,13.48
2023-02-19T03:45:53.760Z,13.38
2023-02-19T03:48:21.115Z,12.92
2023-02-19T03:51:00.261Z,13.94
2023-02-19T03:53:38.192Z,13.31
2023-02-19T03:56:16.209Z,13.11
2023-02-19T03:59:01.901Z,13.64
2023-02-19T04:02:06.519Z,13.30
2023-02-19T04:04:47.370Z,13.66
2023-02-19T04:07:14.728Z,12.90
2023-02-19T04:09:47.252Z,12.95
2023-02-19T04:12:19.195Z,13.42
2023-02-19T04:14:53.785Z,12.36
2023-02-19T04:17:27.608Z,12.29
2023-02-19T04:19:56.353Z,12.86
2023-02-19T04:22:23.912Z,13.17
2023-02-19T04:24:55.358Z,13.52
2023-02-19T04:27:22.843Z,13.04
2023-02-19T04:29:50.208Z,13.33
2023-02-19T04:32:17.601Z,13.73
2023-02-19T04:34:45.058Z,13.45
2023-02-19T04:37:12.574Z,13.68
2023-02-19T04:39:39.941Z,14.26
2023-02-19T04:42:07.373Z,13.53
2023-02-19T04:44:34.790Z,13.65
2023-02-19T04:47:02.391Z,13.40
2023-02-19T04:49:29.845Z,14.81
2023-02-19T04:51:57.207Z,14.81
2023-02-19T04:54:24.732Z,14.26
2023-02-19T04:56:52.115Z,13.41
2023-02-19T04:59:19.533Z,13.91
2023-02-19T05:01:47.214Z,13.39
2023-02-19T05:04:14.693Z,14.59
2023-02-19T05:06:41.681Z,13.52
2023-02-19T05:09:09.059Z,13.30
2023-02-19T05:11:36.469Z,13.62
2023-02-19T05:14:03.882Z,13.23
2023-02-19T05:16:31.239Z,14.23
2023-02-19T05:18:58.209Z,14.29
2023-02-19T05:21:25.604Z,12.53
2023-02-19T05:23:53.201Z,13.13
2023-02-19T05:26:22.909Z,13.37
2023-02-19T05:28:53.072Z,12.70
2023-02-19T05:31:20.990Z,13.53
2023-02-19T05:33:51.225Z,13.78
2023-02-19T05:36:20.956Z,13.65
2023-02-19T05:38:48.410Z,13.66
2023-02-19T05:41:19.742Z,13.76
2023-02-19T05:43:48.721Z,12.94
2023-02-19T05:46:19.786Z,14.07
2023-02-19T05:48:48.321Z,13.85
2023-02-19T05:51:19.737Z,12.64
2023-02-19T05:53:47.392Z,12.90
2023-02-19T05:56:27.553Z,13.50
2023-02-19T05:58:55.498Z,12.92
2023-02-19T06:01:25.794Z,12.34
2023-02-19T06:03:56.852Z,13.04
2023-02-19T06:06:25.102Z,12.17
2023-02-19T06:08:52.407Z,12.54
2023-02-19T06:11:19.805Z,12.01
2023-02-19T06:13:47.424Z,13.06
2023-02-19T06:16:14.417Z,13.51
2023-02-19T06:18:41.626Z,12.92
2023-02-19T06:21:11.203Z,13.33
2023-02-19T06:23:39.499Z,13.40
2023-02-19T06:26:21.710Z,13.19
2023-02-19T06:28:51.762Z,13.16
2023-02-19T06:31:20.847Z,12.47
2023-02-19T06:33:50.512Z,12.54
2023-02-19T06:36:20.237Z,12.77
2023-02-19T06:38:47.919Z,12.12
2023-02-19T06:41:15.493Z,12.74
2023-02-19T06:43:43.054Z,12.15
2023-02-19T06:46:12.654Z,13.41
2023-02-19T06:48:41.099Z,13.10
2023-02-19T06:51:10.211Z,13.16
2023-02-19T06:53:37.781Z,13.39
2023-02-19T06:56:39.483Z,13.32
2023-02-19T06:59:14.230Z,13.45
2023-02-19T07:01:41.604Z,13.36
2023-02-19T07:04:09.120Z,12.83
2023-02-19T07:06:37.461Z,13.19
2023-02-19T07:09:06.766Z,12.39
2023-02-19T07:11:36.108Z,12.72
2023-02-19T07:14:05.602Z,12.86
2023-02-19T07:16:33.257Z,12.94
2023-02-19T07:19:01.004Z,12.86
2023-02-19T07:21:29.111Z,12.62
2023-02-19T07:23:56.542Z,12.59
2023-02-19T07:26:24.242Z,12.94
2023-02-19T07:28:52.309Z,12.75
2023-02-19T07:31:22.278Z,13.00
2023-02-19T07:33:49.682Z,12.68
2023-02-19T07:36:19.137Z,13.32
2023-02-19T07:38:46.606Z,13.00
2023-02-19T07:41:14.349Z,13.79
2023-02-19T07:43:41.730Z,12.77
2023-02-19T07:46:12.836Z,13.60
2023-02-19T07:48:42.050Z,13.12
2023-02-19T07:51:19.035Z,13.58
2023-02-19T07:53:47.603Z,12.61
2023-02-19T07:56:15.422Z,12.41
2023-02-19T07:58:43.055Z,12.82
2023-02-19T08:01:17.125Z,13.90
2023-02-19T08:03:45.427Z,13.79
2023-02-19T08:06:13.121Z,12.81
2023-02-19T08:08:40.895Z,13.53
2023-02-19T08:11:26.789Z,12.97
2023-02-19T08:13:54.259Z,13.07
2023-02-19T08:16:36.721Z,12.78
2023-02-19T08:19:08.395Z,12.94
2023-02-19T08:21:35.358Z,13.09
2023-02-19T08:24:02.721Z,13.51
2023-02-19T08:26:31.149Z,13.46
2023-02-19T08:28:59.021Z,12.58
2023-02-19T08:31:27.146Z,13.45
2023-02-19T08:33:54.696Z,13.29
2023-02-19T08:36:22.119Z,12.94
2023-02-19T08:38:49.080Z,13.14
2023-02-19T08:41:16.545Z,12.39
2023-02-19T08:43:43.951Z,13.36
2023-02-19T08:46:12.148Z,13.54
2023-02-19T08:48:40.276Z,13.55
2023-02-19T08:51:11.546Z,13.56
2023-02-19T08:53:40.834Z,13.66
2023-02-19T08:56:14.162Z,13.87
2023-02-19T08:58:41.919Z,13.58
2023-02-19T09:01:12.101Z,13.25
2023-02-19T09:03:39.908Z,13.01
2023-02-19T09:06:07.376Z,13.58
2023-02-19T09:08:34.750Z,13.54
2023-02-19T09:11:04.504Z,13.32
2023-02-19T09:13:31.985Z,13.51
2023-02-19T09:15:59.366Z,12.91
2023-02-19T09:18:27.224Z,12.98
2023-02-19T09:20:54.577Z,12.68
2023-02-19T09:23:22.140Z,12.98
2023-02-19T09:28:22.140Z,13.45
2023-02-19T09:30:50.091Z,13.29
2023-02-19T09:33:23.911Z,13.86
2023-02-19T09:35:51.604Z,14.18
2023-02-19T09:38:19.150Z,13.42
2023-02-19T09:40:49.877Z,14.34
2023-02-19T09:43:23.851Z,14.15
2023-02-19T09:46:02.665Z,14.51
2023-02-19T09:48:30.148Z,14.61
2023-02-19T09:50:58.953Z,14.27
2023-02-19T09:53:31.092Z,13.38
2023-02-19T09:55:58.529Z,13.35
2023-02-19T09:58:32.711Z,13.78
2023-02-19T10:01:03.931Z,13.41
2023-02-19T10:03:40.701Z,13.87
2023-02-19T10:06:29.736Z,13.38
2023-02-19T10:09:14.593Z,12.97
2023-02-19T10:11:42.414Z,13.94
2023-02-19T10:14:24.791Z,14.17
2023-02-19T10:16:52.065Z,14.22
2023-02-19T10:19:19.411Z,14.35
2023-02-19T10:21:46.904Z,14.65
2023-02-19T10:24:34.212Z,15.02
2023-02-19T10:27:03.991Z,13.97
2023-02-19T10:29:31.465Z,14.49
2023-02-19T10:32:18.203Z,14.50
2023-02-19T10:34:45.572Z,14.06
2023-02-19T10:37:17.526Z,13.90
2023-02-19T10:39:58.516Z,14.89
2023-02-19T10:42:29.483Z,14.32
2023-02-19T10:45:02.126Z,14.23
2023-02-19T10:47:32.941Z,13.43
2023-02-19T10:50:05.035Z,13.95
2023-02-19T10:52:36.377Z,14.07
2023-02-19T10:55:30.017Z,14.08
2023-02-19T10:57:57.916Z,13.89
2023-02-19T11:00:30.618Z,13.73
2023-02-19T11:03:36.169Z,13.96
2023-02-19T11:06:09.741Z,14.13
2023-02-19T11:08:54.107Z,14.06
2023-02-19T11:11:39.834Z,14.27
2023-02-19T11:14:18.604Z,13.95
2023-02-19T11:16:49.763Z,14.01
2023-02-19T11:19:36.739Z,14.60
2023-02-19T11:22:32.873Z,14.29
2023-02-19T11:25:21.622Z,13.74
2023-02-19T11:28:25.940Z,14.21
2023-02-19T11:30:52.885Z,13.75
2023-02-19T11:33:30.203Z,13.84
2023-02-19T11:36:18.191Z,13.75
2023-02-19T11:38:45.800Z,13.83
2023-02-19T11:41:24.791Z,14.05
2023-02-19T11:44:17.334Z,13.40
2023-02-19T11:47:18.762Z,13.85
2023-02-19T11:50:29.441Z,13.29
2023-02-19T11:53:16.915Z,14.58
2023-02-19T11:55:56.286Z,14.55
2023-02-19T11:58:39.812Z,14.04
2023-02-19T12:02:02.781Z,14.08
2023-02-19T12:05:19.035Z,14.50
2023-02-19T12:08:36.103Z,13.91
2023-02-19T12:11:24.295Z,14.34
2023-02-19T12:14:41.993Z,14.29
2023-02-19T12:18:04.150Z,14.48
2023-02-19T12:21:11.162Z,13.53
2023-02-19T12:23:44.472Z,14.81
2023-02-19T12:26:37.444Z,14.66
2023-02-19T12:29:04.943Z,14.65
2023-02-19T12:32:06.467Z,14.96
2023-02-19T12:35:09.469Z,14.20
2023-02-19T12:38:00.462Z,14.97
2023-02-19T12:41:04.861Z,13.83
2023-02-19T12:43:33.741Z,13.87
2023-02-19T12:46:17.109Z,14.06
2023-02-19T12:48:55.625Z,14.20
2023-02-19T12:51:47.568Z,14.74
2023-02-19T12:54:27.248Z,14.53
2023-02-19T12:57:21.091Z,15.22
2023-02-19T13:00:04.690Z,14.81
2023-02-19T13:02:50.810Z,14.52
2023-02-19T13:05:58.798Z,14.52
2023-02-19T13:08:42.061Z,14.75
2023-02-19T13:11:36.718Z,14.75
2023-02-19T13:14:31.309Z,14.29
2023-02-19T13:17:08.882Z,14.22
2023-02-19T13:19:37.562Z,14.85
2023-02-19T13:22:37.605Z,14.37
2023-02-19T13:25:07.146Z,13.74
2023-02-19T13:28:04.405Z,14.72
2023-02-19T13:30:53.975Z,14.01
2023-02-19T13:33:32.572Z,13.78
2023-02-19T13:36:15.266Z,13.30
2023-02-19T13:38:48.548Z,13.09
2023-02-19T13:41:34.873Z,13.71
2023-02-19T13:44:08.281Z,13.47
2023-02-19T13:46:43.262Z,14.14
2023-02-19T13:49:41.940Z,13.19
2023-02-19T13:52:33.362Z,14.46
2023-02-19T13:55:46.536Z,14.72
2023-02-19T13:58:39.837Z,14.58
2023-02-19T14:01:12.753Z,14.15
2023-02-19T14:03:42.981Z,13.87
2023-02-19T14:06:10.791Z,13.83
2023-02-19T14:08:52.675Z,13.40
2023-02-19T14:11:42.099Z,13.46
2023-02-19T14:14:48.757Z,13.29
2023-02-19T14:17:43.681Z,13.34
2023-02-19T14:20:16.669Z,13.53
2023-02-19T14:22:47.358Z,13.45
2023-02-19T14:25:43.422Z,14.60
2023-02-19T14:28:10.166Z,14.06
2023-02-19T14:31:01.188Z,14.59
2023-02-19T14:33:43.203Z,13.74
2023-02-19T14:36:23.565Z,14.53
2023-02-19T14:38:58.849Z,14.26
2023-02-19T14:41:29.837Z,13.79
2023-02-19T14:43:59.190Z,14.38
2023-02-19T14:46:40.091Z,14.18
2023-02-19T14:49:51.422Z,14.35
2023-02-19T14:52:28.430Z,14.63
2023-02-19T14:55:01.584Z,14.47
2023-02-19T14:57:36.744Z,14.69
2023-02-19T15:00:23.244Z,14.41
2023-02-19T15:02:53.153Z,13.80
2023-02-19T15:05:29.098Z,14.24
2023-02-19T15:08:00.046Z,14.41
2023-02-19T15:10:32.268Z,14.71
2023-02-19T15:13:01.461Z,13.85
2023-02-19T15:15:32.580Z,14.11
2023-02-19T15:18:01.341Z,13.87
2023-02-19T15:20:35.191Z,14.01
2023-02-19T15:23:04.555Z,14.20
2023-02-19T15:25:36.123Z,13.66
2023-02-19T15:28:24.122Z,13.95
2023-02-19T15:31:06.259Z,13.44
2023-02-19T15:33:34.112Z,14.08
2023-02-19T15:36:05.920Z,13.69
2023-02-19T15:38:33.649Z,14.12
2023-02-19T15:41:01.757Z,13.73
2023-02-19T15:43:50.616Z,14.27
2023-02-19T15:46:21.963Z,13.58
2023-02-19T15:49:15.793Z,13.71
2023-02-19T15:51:55.226Z,13.53
2023-02-19T15:54:27.252Z,14.10
2023-02-19T15:56:55.695Z,14.54
2023-02-19T15:59:40.385Z,13.66
2023-02-19T16:02:13.416Z,13.73
2023-02-19T16:04:45.114Z,14.34
2023-02-19T16:07:31.836Z,14.27
2023-02-19T16:10:22.202Z,14.04
2023-02-19T16:12:57.833Z,14.00
2023-02-19T16:15:26.920Z,13.59
2023-02-19T16:17:54.527Z,13.50
2023-02-19T16:20:29.959Z,13.34
2023-02-19T16:23:03.911Z,13.88
2023-02-19T16:25:41.884Z,14.26
2023-02-19T16:28:24.394Z,13.86
2023-02-19T16:31:04.970Z,13.70
2023-02-19T16:33:39.732Z,13.75
2023-02-19T16:36:41.467Z,13.63
2023-02-19T16:39:09.022Z,12.90
2023-02-19T16:41:48.153Z,13.53
2023-02-19T16:44:21.268Z,13.73
2023-02-19T16:46:58.027Z,13.58
2023-02-19T16:49:25.516Z,13.74
2023-02-19T16:51:54.564Z,14.08
2023-02-19T16:54:21.900Z,14.01
2023-02-19T16:56:49.192Z,14.10
2023-02-19T16:59:16.480Z,13.98
2023-02-19T17:01:43.814Z,13.82
2023-02-19T17:04:15.588Z,14.00
2023-02-19T17:06:44.170Z,13.47
2023-02-19T17:09:11.443Z,14.01
2023-02-19T17:11:39.711Z,14.18
2023-02-19T17:14:08.139Z,13.59
2023-02-19T17:16:42.385Z,13.09
2023-02-19T17:19:19.998Z,13.85
2023-02-19T17:21:47.694Z,12.81
2023-02-19T17:24:15.273Z,13.66
2023-02-19T17:26:42.888Z,12.87
2023-02-19T17:29:15.445Z,14.16
2023-02-19T17:31:42.985Z,14.00
2023-02-19T17:34:10.760Z,13.60
2023-02-19T17:36:38.263Z,13.09
2023-02-19T17:39:11.886Z,13.13
2023-02-19T17:41:39.191Z,12.89
2023-02-19T17:44:06.518Z,13.79
2023-02-19T17:46:34.841Z,13.97
2023-02-19T17:49:02.126Z,14.40
2023-02-19T17:51:29.413Z,13.44
2023-02-19T17:53:56.967Z,13.78
2023-02-19T17:56:26.156Z,13.45
2023-02-19T17:58:57.504Z,13.49
2023-02-19T18:01:25.266Z,14.22
2023-02-19T18:03:52.993Z,14.37
2023-02-19T18:06:20.795Z,13.56
2023-02-19T18:08:50.552Z,13.39
2023-02-19T18:11:18.958Z,13.70
2023-02-19T18:13:47.992Z,13.92
2023-02-19T18:16:16.035Z,14.66
2023-02-19T18:18:44.531Z,15.30
2023-02-19T18:21:13.230Z,14.73
2023-02-19T18:23:40.992Z,14.05
2023-02-19T18:26:11.006Z,13.69
2023-02-19T18:28:38.718Z,13.98
2023-02-19T18:31:08.325Z,13.82
2023-02-19T18:33:35.500Z,13.70
2023-02-19T18:36:03.604Z,15.13
2023-02-19T18:38:30.873Z,14.64
2023-02-19T18:40:58.926Z,14.74
2023-02-19T18:43:26.336Z,14.39
2023-02-19T18:45:53.661Z,14.53
2023-02-19T18:48:20.896Z,14.29
2023-02-19T18:50:47.833Z,12.65
2023-02-19T18:53:14.901Z,13.79
2023-02-19T18:55:41.817Z,14.06
2023-02-19T18:58:09.119Z,13.94
2023-02-19T19:00:36.609Z,14.84
2023-02-19T19:03:03.962Z,14.39
2023-02-19T19:05:31.294Z,13.50
2023-02-19T19:07:59.637Z,13.32
2023-02-19T19:10:27.133Z,13.17
2023-02-19T19:12:57.769Z,14.50
2023-02-19T19:15:30.846Z,14.66
2023-02-19T19:17:59.583Z,13.66
2023-02-19T19:20:27.169Z,14.07
2023-02-19T19:22:54.602Z,13.14
2023-02-19T19:25:25.192Z,13.68
2023-02-19T19:27:56.341Z,13.96
2023-02-19T19:30:23.422Z,13.92
2023-02-19T19:32:55.214Z,13.12
2023-02-19T19:35:28.807Z,13.40
2023-02-19T19:37:58.821Z,14.06
2023-02-19T19:40:26.521Z,13.75
2023-02-19T19:42:56.346Z,13.62
2023-02-19T19:45:28.806Z,13.57
2023-02-19T19:47:56.566Z,13.10
2023-02-19T19:50:24.278Z,13.96
2023-02-19T19:52:54.611Z,13.50
2023-02-19T19:55:22.268Z,14.00
2023-02-19T19:57:49.843Z,12.92
2023-02-19T20:00:23.507Z,13.68
2023-02-19T20:02:53.942Z,13.45
2023-02-19T20:05:24.825Z,13.49
2023-02-19T20:07:57.309Z,13.12
2023-02-19T20:10:24.859Z,13.28
2023-02-19T20:12:52.421Z,12.83
2023-02-19T20:15:23.373Z,13.49
2023-02-19T20:17:51.084Z,13.12
2023-02-19T20:20:18.929Z,13.22
2023-02-19T20:22:45.880Z,13.04
2023-02-19T20:25:13.232Z,13.69
2023-02-19T20:27:40.595Z,14.25
2023-02-19T20:30:11.331Z,13.23
2023-02-19T20:32:38.850Z,13.11
2023-02-19T20:35:06.069Z,13.42
2023-02-19T20:37:33.376Z,13.34
2023-02-19T20:40:01.003Z,13.78
2023-02-19T20:42:28.271Z,13.41
2023-02-19T20:44:56.693Z,13.36
2023-02-19T20:47:31.506Z,13.63
2023-02-19T20:50:01.848Z,13.27
2023-02-19T20:52:29.574Z,14.15
2023-02-19T20:54:57.604Z,13.78
2023-02-19T20:57:25.159Z,13.29
2023-02-19T20:59:52.844Z,13.50
2023-02-19T21:02:29.343Z,13.71
2023-02-19T21:04:58.123Z,13.41
2023-02-19T21:07:26.757Z,12.81
2023-02-19T21:10:00.451Z,12.74
2023-02-19T21:12:28.347Z,12.75
2023-02-19T21:14:56.164Z,13.91
2023-02-19T21:17:23.786Z,12.99
2023-02-19T21:19:51.251Z,12.92
2023-02-19T21:22:27.286Z,12.47
2023-02-19T21:24:55.026Z,13.48
2023-02-19T21:27:22.775Z,13.15
2023-02-19T21:29:50.510Z,13.69
2023-02-19T21:32:21.707Z,13.62
2023-02-19T21:34:49.574Z,14.06
2023-02-19T21:37:17.354Z,12.80
2023-02-19T21:39:45.397Z,12.96
2023-02-19T21:42:18.233Z,13.01
2023-02-19T21:44:53.004Z,13.55
2023-02-19T21:47:22.732Z,13.71
2023-02-19T21:49:50.644Z,12.97
2023-02-19T21:52:18.343Z,13.51
2023-02-19T21:54:46.102Z,13.19
2023-02-19T21:57:13.722Z,13.27
2023-02-19T21:59:41.686Z,13.36
2023-02-19T22:02:12.840Z,13.21
2023-02-19T22:04:43.257Z,12.90
2023-02-19T22:07:11.191Z,13.20
2023-02-19T22:09:39.305Z,13.69
2023-02-19T22:12:09.475Z,13.55
2023-02-19T22:14:37.130Z,13.15
2023-02-19T22:17:10.621Z,13.95
2023-02-19T22:19:40.661Z,14.42
2023-02-19T22:22:08.405Z,13.61
2023-02-19T22:24:37.918Z,13.83
2023-02-19T22:27:05.552Z,13.67
2023-02-19T22:29:33.433Z,13.54
2023-02-19T22:32:03.344Z,14.16
2023-02-19T22:34:33.466Z,14.32
2023-02-19T22:37:06.255Z,13.48
2023-02-19T22:39:34.069Z,13.70
2023-02-19T22:42:04.730Z,14.28
2023-02-19T22:44:34.413Z,14.06
2023-02-19T22:47:02.185Z,13.68
2023-02-19T22:49:30.022Z,13.77
2023-02-19T22:52:07.692Z,13.24
2023-02-19T22:54:37.003Z,13.25
2023-02-19T22:57:05.135Z,13.05
2023-02-19T22:59:33.315Z,12.49
2023-02-19T23:02:00.952Z,12.72
2023-02-19T23:04:28.629Z,12.03
2023-02-19T23:06:56.357Z,13.39
2023-02-19T23:09:30.467Z,13.06
2023-02-19T23:12:11.748Z,13.71
2023-02-19T23:14:39.493Z,12.15
2023-02-19T23:17:07.530Z,13.00
2023-02-19T23:19:35.225Z,13.17
2023-02-19T23:22:02.515Z,13.44
2023-02-19T23:24:29.916Z,13.24
2023-02-19T23:26:56.902Z,13.05
2023-02-19T23:29:26.564Z,13.17
2023-02-19T23:31:54.768Z,12.46
2023-02-19T23:34:22.340Z,13.22
2023-02-19T23:36:51.091Z,12.58
2023-02-19T23:39:21.681Z,13.03
2023-02-19T23:41:55.338Z,13.05
2023-02-19T23:44:24.688Z,12.00
2023-02-19T23:46:52.238Z,13.35
2023-02-19T23:49:20.976Z,12.29
2023-02-19T23:51:48.417Z,13.27
2023-02-19T23:54:16.029Z,12.93
2023-02-19T23:56:43.440Z,13.10
2023-02-19T23:59:10.912Z,12.32
